Terminal Aerodrome Forecast
Issued by NWS

Home | Current Version | Previous Version | Text Only | Print | Product List | Glossary On
Versions: 1 2 3 4 5 6 7 8 9 10 11 12 13 14 15 16
000
FTUS42 KMLB 251501 AAB
TAFFPR
TAF AMD
KFPR 251501Z 2515/2612 26011G19KT P6SM VCTS SCT009 SCT018CB BKN030
      TEMPO 2515/2517 VRB15G30KT 1SM TSRA BKN018CB OVC030
     FM251700 26014G20KT P6SM SCT040 BKN060
     FM252200 27008KT P6SM SCT050
     FM260600 27005KT P6SM SKC=

USA.gov is the U.S. government's official web portal to all federal, state and local government web resources and services.